Time;durP1;ratioP1;P1;durP2;ratioP2;P2;SDS_P1;SDS_P2;PMS_P1;PMS_P2;Temp;Humidity;BMP_temperature;BMP_pressure;BME280_temperature;BME280_humidity;BME280_pressure;Samples;Min_cycle;Max_cycle;Signal;HPM_P1;HPM_P2
2022/05/01 00:01:37;;;;;;;22.83;19.13;;;9.30;99.90;;;;;;5072539;28;20025;-78
2022/05/01 00:04:03;;;;;;;19.80;17.30;;;9.30;99.90;;;;;;5071792;28;20132;-79
2022/05/01 00:06:31;;;;;;;19.27;17.00;;;9.30;99.90;;;;;;5073668;28;20021;-79
2022/05/01 00:08:57;;;;;;;18.20;16.20;;;9.30;99.90;;;;;;5074864;28;20031;-79
2022/05/01 00:11:23;;;;;;;17.00;15.30;;;9.30;99.90;;;;;;5074255;28;20027;-79
2022/05/01 00:13:48;;;;;;;17.93;16.03;;;9.30;99.90;;;;;;5073912;28;20377;-79
2022/05/01 00:16:14;;;;;;;17.13;15.33;;;9.30;99.90;;;;;;5074021;28;20384;-79
2022/05/01 00:18:40;;;;;;;15.63;13.93;;;9.30;99.90;;;;;;5073872;28;20029;-79
2022/05/01 00:21:09;;;;;;;18.20;15.80;;;9.30;99.90;;;;;;5073682;28;20123;-79
2022/05/01 00:23:34;;;;;;;17.90;16.00;;;9.30;99.90;;;;;;5073800;28;20035;-79
2022/05/01 00:26:02;;;;;;;19.77;15.50;;;9.30;99.90;;;;;;5072520;28;20099;-79
2022/05/01 00:28:29;;;;;;;20.03;17.20;;;9.20;99.90;;;;;;5075180;28;20075;-78
2022/05/01 00:30:57;;;;;;;18.30;16.03;;;9.20;99.90;;;;;;5075973;28;20445;-78
2022/05/01 00:38:50;;;;;;;20.83;18.37;;;9.20;99.90;;;;;;5071913;28;20082;-78
2022/05/01 00:41:16;;;;;;;23.53;20.13;;;9.20;99.90;;;;;;5075203;28;20041;-79
2022/05/01 00:44:03;;;;;;;24.70;21.47;;;9.20;99.90;;;;;;5075445;28;20032;-78
2022/05/01 00:46:41;;;;;;;24.33;21.17;;;9.20;99.90;;;;;;5074819;28;20043;-78
2022/05/01 00:49:09;;;;;;;28.03;22.90;;;9.20;99.90;;;;;;5074846;28;20080;-78
2022/05/01 00:51:41;;;;;;;26.60;22.80;;;9.10;99.90;;;;;;5075030;28;20099;-79
2022/05/01 00:54:07;;;;;;;27.73;23.90;;;9.10;99.90;;;;;;5074902;28;20012;-78
2022/05/01 00:56:35;;;;;;;29.27;23.77;;;9.10;99.90;;;;;;5074644;28;20478;-78
2022/05/01 00:59:01;;;;;;;29.77;24.73;;;9.10;99.90;;;;;;5074577;28;20025;-79
2022/05/01 01:01:26;;;;;;;27.40;24.27;;;9.00;99.90;;;;;;5074502;28;20020;-79
2022/05/01 01:03:54;;;;;;;30.47;24.83;;;9.00;99.90;;;;;;5074385;28;20024;-79
2022/05/01 01:06:20;;;;;;;29.10;24.77;;;9.00;99.90;;;;;;5074517;28;20150;-79
2022/05/01 01:08:46;;;;;;;32.53;25.20;;;9.00;99.90;;;;;;5074539;28;20012;-79
2022/05/01 01:11:12;;;;;;;27.97;24.03;;;9.00;99.90;;;;;;5074313;28;20059;-79
2022/05/01 01:13:37;;;;;;;29.67;23.37;;;9.00;99.90;;;;;;5074708;28;20467;-79
2022/05/01 01:16:09;;;;;;;28.33;25.23;;;9.00;99.90;;;;;;5074801;28;21251;-79
2022/05/01 01:18:35;;;;;;;32.03;26.13;;;8.90;99.90;;;;;;5074442;28;20051;-79
2022/05/01 01:21:00;;;;;;;31.27;26.30;;;9.00;99.90;;;;;;5073513;28;20484;-79
2022/05/01 01:23:26;;;;;;;27.97;24.20;;;8.90;99.90;;;;;;5073066;28;20035;-79
2022/05/01 01:25:52;;;;;;;30.70;25.60;;;9.00;99.90;;;;;;5072961;28;20104;-79
2022/05/01 01:28:18;;;;;;;31.80;26.37;;;8.90;99.90;;;;;;5073688;28;20060;-76
2022/05/01 01:33:29;;;;;;;30.57;27.27;;;8.90;99.90;;;;;;5074496;28;20035;-76
2022/05/01 01:35:56;;;;;;;28.50;24.50;;;8.90;99.90;;;;;;5074122;28;20025;-76
2022/05/01 01:38:22;;;;;;;29.63;26.07;;;8.90;99.90;;;;;;5073766;28;20493;-76
2022/05/01 01:40:54;;;;;;;32.23;27.37;;;8.90;99.90;;;;;;5073666;28;20020;-76
2022/05/01 01:43:24;;;;;;;32.07;27.07;;;8.90;99.90;;;;;;5073678;28;20456;-76
2022/05/01 01:45:50;;;;;;;34.90;26.97;;;8.90;99.90;;;;;;5073862;28;20025;-76
2022/05/01 01:48:18;;;;;;;31.07;26.80;;;8.90;99.90;;;;;;5073594;28;20381;-76
2022/05/01 01:50:53;;;;;;;31.97;27.87;;;8.90;99.90;;;;;;5073856;28;20028;-76
2022/05/01 01:53:18;;;;;;;25.95;22.23;;;8.90;99.90;;;;;;5073266;28;20047;-76
2022/05/01 01:55:44;;;;;;;31.87;27.20;;;8.90;99.90;;;;;;5073202;28;20041;-76
2022/05/01 01:58:09;;;;;;;30.40;26.90;;;8.90;99.90;;;;;;5073272;28;20446;-76
2022/05/01 02:00:35;;;;;;;35.57;27.07;;;8.90;99.90;;;;;;5072117;28;20115;-76
2022/05/01 02:03:06;;;;;;;31.73;27.80;;;8.90;99.90;;;;;;5073552;28;20055;-76
2022/05/01 02:05:34;;;;;;;32.40;28.10;;;8.90;99.90;;;;;;5073313;28;20106;-76
2022/05/01 02:08:01;;;;;;;33.83;28.50;;;8.90;99.90;;;;;;5070023;28;20028;-76
2022/05/01 02:10:27;;;;;;;34.17;29.60;;;8.80;99.90;;;;;;5073362;28;20016;-76
2022/05/01 02:12:53;;;;;;;29.47;25.93;;;8.80;99.90;;;;;;5073291;28;20035;-76
2022/05/01 02:15:19;;;;;;;33.60;28.60;;;8.90;99.90;;;;;;5073041;28;20020;-76
2022/05/01 02:17:48;;;;;;;34.37;28.37;;;8.80;99.90;;;;;;5073120;28;20041;-76
2022/05/01 02:20:14;;;;;;;32.60;28.33;;;8.90;99.90;;;;;;5069949;28;20039;-77
2022/05/01 02:22:40;;;;;;;34.53;27.97;;;8.80;99.90;;;;;;5074670;28;20029;-76
2022/05/01 02:25:10;;;;;;;33.23;27.17;;;8.80;99.90;;;;;;5074176;28;20021;-77
2022/05/01 02:27:37;;;;;;;34.80;29.03;;;8.90;99.90;;;;;;5073813;28;20021;-77
2022/05/01 02:30:04;;;;;;;34.07;28.50;;;8.90;99.90;;;;;;5073669;28;20021;-76
2022/05/01 02:32:29;;;;;;;32.90;27.03;;;8.90;99.90;;;;;;5074312;28;20039;-76
2022/05/01 02:34:55;;;;;;;30.47;27.10;;;8.90;99.90;;;;;;5076246;28;20028;-76
2022/05/01 02:37:21;;;;;;;36.23;28.90;;;8.90;99.90;;;;;;5075523;28;20085;-76
2022/05/01 02:39:46;;;;;;;34.10;28.20;;;8.90;99.90;;;;;;5075334;28;20028;-76
2022/05/01 02:42:13;;;;;;;31.73;27.23;;;8.90;99.90;;;;;;5075484;28;20041;-76
2022/05/01 02:44:38;;;;;;;34.53;28.73;;;8.90;99.90;;;;;;5074679;28;20374;-76
2022/05/01 02:47:05;;;;;;;33.93;27.73;;;8.90;99.90;;;;;;5074126;28;20020;-76
2022/05/01 02:49:31;;;;;;;35.97;27.50;;;8.90;99.90;;;;;;5073648;28;20029;-76
2022/05/01 02:51:58;;;;;;;32.20;27.70;;;8.90;99.90;;;;;;5073090;28;20108;-79
2022/05/01 02:54:24;;;;;;;31.60;26.20;;;8.90;99.90;;;;;;5072938;28;20039;-79
2022/05/01 02:56:49;;;;;;;33.47;26.77;;;8.90;99.90;;;;;;5072588;28;20032;-79
2022/05/01 02:59:18;;;;;;;33.07;28.03;;;8.90;99.90;;;;;;5072526;28;20060;-79
2022/05/01 03:01:44;;;;;;;37.00;29.87;;;8.90;99.90;;;;;;5072157;28;20098;-79
2022/05/01 03:04:10;;;;;;;37.07;28.90;;;8.90;99.90;;;;;;5072298;28;20056;-79
2022/05/01 03:06:36;;;;;;;37.87;29.80;;;8.90;99.90;;;;;;5072340;28;20032;-79
2022/05/01 03:09:02;;;;;;;36.83;29.03;;;8.90;99.90;;;;;;5072554;28;20031;-79
2022/05/01 03:11:28;;;;;;;38.80;29.60;;;8.80;99.90;;;;;;5072303;28;20028;-79
2022/05/01 03:13:54;;;;;;;34.73;27.87;;;8.80;99.90;;;;;;5072548;28;20035;-79
2022/05/01 03:16:19;;;;;;;34.73;28.37;;;8.80;99.90;;;;;;5072120;28;20115;-79
2022/05/01 03:24:18;;;;;;;34.83;26.93;;;8.80;99.90;;;;;;5072150;28;20104;-79
2022/05/01 03:26:43;;;;;;;33.70;26.83;;;8.80;99.90;;;;;;5071439;28;20693;-79
2022/05/01 03:29:10;;;;;;;33.57;27.97;;;8.70;99.90;;;;;;5072161;28;20122;-79
2022/05/01 03:31:37;;;;;;;31.23;24.63;;;8.70;99.90;;;;;;5072128;28;20029;-78
2022/05/01 03:34:04;;;;;;;32.87;26.57;;;8.70;99.90;;;;;;5072587;28;20032;-79
2022/05/01 03:36:29;;;;;;;30.90;25.23;;;8.60;99.90;;;;;;5071854;28;20033;-79
2022/05/01 03:38:55;;;;;;;35.20;27.83;;;8.60;99.90;;;;;;5071994;28;20032;-79
2022/05/01 03:41:21;;;;;;;37.03;29.27;;;8.60;99.90;;;;;;5074304;28;20481;-79
2022/05/01 03:43:46;;;;;;;34.50;27.37;;;8.50;99.90;;;;;;5076146;28;20539;-76
2022/05/01 03:46:12;;;;;;;39.37;29.00;;;8.50;99.90;;;;;;5076120;28;20158;-77
2022/05/01 03:48:37;;;;;;;36.23;28.53;;;8.50;99.90;;;;;;5075988;28;20059;-77
2022/05/01 03:51:03;;;;;;;32.90;26.83;;;8.40;99.90;;;;;;5076162;28;20032;-77
2022/05/01 03:53:32;;;;;;;33.13;28.03;;;8.50;99.90;;;;;;5075727;28;20036;-77
2022/05/01 03:55:58;;;;;;;35.57;28.87;;;8.50;99.90;;;;;;5075969;28;20060;-77
2022/05/01 03:58:24;;;;;;;37.70;28.07;;;8.40;99.90;;;;;;5076015;28;20036;-77
2022/05/01 04:00:50;;;;;;;35.63;28.20;;;8.40;99.90;;;;;;5075937;28;20032;-77
2022/05/01 04:03:19;;;;;;;37.83;28.03;;;8.40;99.90;;;;;;5076312;28;20025;-79
2022/05/01 04:05:46;;;;;;;34.83;28.20;;;8.40;99.90;;;;;;5076005;28;20031;-78
2022/05/01 04:08:12;;;;;;;36.00;28.40;;;8.40;99.90;;;;;;5076692;28;20104;-79
2022/05/01 04:10:39;;;;;;;40.17;29.93;;;8.40;99.90;;;;;;5076699;28;20108;-79
2022/05/01 04:13:05;;;;;;;38.80;29.27;;;8.30;99.90;;;;;;5076511;28;20454;-79
2022/05/01 04:15:31;;;;;;;35.60;29.03;;;8.30;99.90;;;;;;5077450;28;20082;-79
2022/05/01 04:17:57;;;;;;;37.70;29.77;;;8.30;99.90;;;;;;5078018;28;20029;-79
2022/05/01 04:20:23;;;;;;;40.37;30.20;;;8.30;99.90;;;;;;5077244;28;20419;-79
2022/05/01 04:22:49;;;;;;;42.60;31.37;;;8.30;99.90;;;;;;5076712;28;20036;-79
2022/05/01 04:25:19;;;;;;;41.73;31.43;;;8.30;99.90;;;;;;5076412;28;20358;-79
2022/05/01 04:27:46;;;;;;;42.97;32.10;;;8.20;99.90;;;;;;5075647;28;20074;-79
2022/05/01 04:30:13;;;;;;;42.93;31.77;;;8.20;99.90;;;;;;5075262;28;20024;-79
2022/05/01 04:32:54;;;;;;;42.10;31.53;;;8.20;99.90;;;;;;5073890;28;20043;-79
2022/05/01 04:35:32;;;;;;;42.67;31.00;;;8.20;99.90;;;;;;5073241;28;20094;-79
2022/05/01 04:38:02;;;;;;;41.93;31.27;;;8.20;99.90;;;;;;5074261;28;20330;-79
2022/05/01 04:40:30;;;;;;;38.20;28.73;;;8.20;99.90;;;;;;5074267;28;20024;-79
2022/05/01 04:43:07;;;;;;;40.43;30.13;;;8.20;99.90;;;;;;5073932;28;20048;-79
2022/05/01 04:45:36;;;;;;;44.97;31.97;;;8.20;99.90;;;;;;5073022;28;20548;-79
2022/05/01 04:48:02;;;;;;;40.40;28.77;;;8.20;99.90;;;;;;5072774;28;20081;-79
2022/05/01 04:50:28;;;;;;;38.93;29.00;;;8.20;99.90;;;;;;5074059;28;20020;-79
2022/05/01 04:52:54;;;;;;;43.83;32.43;;;8.30;99.90;;;;;;5073389;28;20115;-79
2022/05/01 04:55:20;;;;;;;38.43;29.80;;;8.20;99.90;;;;;;5073007;28;20461;-78
2022/05/01 04:57:46;;;;;;;40.67;30.47;;;8.20;99.90;;;;;;5073888;28;20032;-79
2022/05/01 05:00:13;;;;;;;41.30;30.83;;;8.20;99.90;;;;;;5073728;28;20059;-79
2022/05/01 05:02:41;;;;;;;41.47;30.40;;;8.20;99.90;;;;;;5071593;28;20095;-79
2022/05/01 05:05:09;;;;;;;42.63;30.20;;;8.20;99.90;;;;;;5070697;28;20052;-79
2022/05/01 05:07:35;;;;;;;39.20;30.13;;;8.20;99.90;;;;;;5071288;28;20108;-79
2022/05/01 05:10:01;;;;;;;37.97;28.83;;;8.20;99.90;;;;;;5071687;28;20021;-79
2022/05/01 05:12:27;;;;;;;37.33;28.77;;;8.20;99.90;;;;;;5071540;28;20147;-79
2022/05/01 05:14:55;;;;;;;38.47;28.60;;;8.20;99.90;;;;;;5070710;28;20502;-79
2022/05/01 05:17:21;;;;;;;39.20;29.97;;;8.20;99.90;;;;;;5070578;28;20485;-79
2022/05/01 05:19:47;;;;;;;39.17;30.20;;;8.20;99.90;;;;;;5071018;28;20448;-79
2022/05/01 05:22:14;;;;;;;38.90;29.33;;;8.20;99.90;;;;;;5070510;28;20052;-79
2022/05/01 05:24:39;;;;;;;39.70;29.80;;;8.30;99.90;;;;;;5072149;28;21105;-79
2022/05/01 05:27:05;;;;;;;38.73;30.17;;;8.20;99.90;;;;;;5073648;28;20020;-78
2022/05/01 05:29:31;;;;;;;40.07;29.63;;;8.30;99.90;;;;;;5073940;28;20024;-78
2022/05/01 05:31:56;;;;;;;38.77;28.53;;;8.30;99.90;;;;;;5073517;28;20108;-78
2022/05/01 05:34:22;;;;;;;40.43;30.60;;;8.20;99.90;;;;;;5074035;28;20039;-78
2022/05/01 05:36:48;;;;;;;37.57;29.07;;;8.30;99.90;;;;;;5073781;28;20028;-78
2022/05/01 05:39:14;;;;;;;38.13;29.13;;;8.30;99.90;;;;;;5073654;28;20047;-78
2022/05/01 05:41:40;;;;;;;39.27;30.03;;;8.30;99.90;;;;;;5073438;28;20054;-78
2022/05/01 05:44:05;;;;;;;37.20;29.03;;;8.30;99.90;;;;;;5073357;28;20444;-79
2022/05/01 05:46:31;;;;;;;35.87;27.93;;;8.30;99.90;;;;;;5073349;28;20415;-76
2022/05/01 05:48:57;;;;;;;40.27;29.13;;;8.30;99.90;;;;;;5073527;28;20029;-76
2022/05/01 05:51:23;;;;;;;37.80;28.83;;;8.40;99.90;;;;;;5074059;28;20469;-78
2022/05/01 05:53:52;;;;;;;43.10;30.47;;;8.40;99.90;;;;;;5073167;28;20029;-78
2022/05/01 05:58:50;;;;;;;39.37;30.13;;;8.40;99.90;;;;;;4635067;28;20083;-82
2022/05/01 06:01:20;;;;;;;39.90;30.83;;;8.30;99.90;;;;;;5074061;28;20024;-90
2022/05/01 06:03:48;;;;;;;40.50;31.47;;;8.30;99.90;;;;;;5073207;28;20024;-87
2022/05/01 06:06:22;;;;;;;40.93;31.00;;;8.30;99.90;;;;;;5055715;28;20107;-80
2022/05/01 06:08:50;;;;;;;39.30;29.30;;;8.30;99.90;;;;;;5056595;28;20024;-85
2022/05/01 06:11:19;;;;;;;42.33;31.10;;;8.30;99.90;;;;;;5059245;28;20373;-85
2022/05/01 06:14:10;;;;;;;39.77;30.07;;;8.30;99.90;;;;;;5074511;28;20108;-84
2022/05/01 06:16:59;;;;;;;40.10;30.10;;;8.30;99.90;;;;;;5074170;28;20046;-85
2022/05/01 06:19:42;;;;;;;36.93;28.37;;;8.40;99.90;;;;;;5048265;28;20424;-88
2022/05/01 06:22:10;;;;;;;41.23;29.90;;;8.40;99.90;;;;;;5074927;28;20460;-89
2022/05/01 06:24:41;;;;;;;41.80;30.73;;;8.40;99.90;;;;;;5074922;28;20047;-88
2022/05/01 06:27:10;;;;;;;41.30;31.00;;;8.40;99.90;;;;;;5055444;28;20089;-88
2022/05/01 06:33:10;;;;;;;38.73;28.50;;;8.50;99.90;;;;;;5061265;28;20350;-88
2022/05/01 06:35:52;;;;;;;38.80;28.13;;;8.50;99.90;;;;;;5055511;28;20028;-87
2022/05/01 06:38:21;;;;;;;37.57;29.00;;;8.60;99.90;;;;;;5069896;28;20021;-87
2022/05/01 06:40:49;;;;;;;39.33;28.73;;;8.60;99.90;;;;;;5061705;28;20070;-87
2022/05/01 06:43:22;;;;;;;36.30;27.63;;;8.60;99.90;;;;;;5073911;28;20027;-87
2022/05/01 06:45:50;;;;;;;36.03;26.83;;;8.70;99.90;;;;;;5060660;28;20059;-87
2022/05/01 06:48:28;;;;;;;37.97;28.37;;;8.70;99.90;;;;;;5073339;28;20358;-89
2022/05/01 06:50:54;;;;;;;39.70;29.20;;;8.70;99.90;;;;;;5055575;28;20123;-87
2022/05/01 06:53:19;;;;;;;38.67;29.57;;;8.60;99.90;;;;;;5054616;28;20107;-85
2022/05/01 06:55:46;;;;;;;40.63;29.60;;;8.60;99.90;;;;;;5074399;28;20017;-85
2022/05/01 06:58:11;;;;;;;41.40;30.00;;;8.60;99.90;;;;;;5073466;28;20021;-85
2022/05/01 07:00:37;;;;;;;39.33;29.50;;;8.70;99.90;;;;;;5073068;28;20052;-85
2022/05/01 07:03:03;;;;;;;39.93;30.17;;;8.70;99.90;;;;;;5073709;28;20025;-86
2022/05/01 07:05:29;;;;;;;42.57;28.33;;;8.60;99.90;;;;;;5056224;28;20036;-86
2022/05/01 07:07:55;;;;;;;37.47;27.07;;;8.60;99.90;;;;;;5055624;28;20027;-85
2022/05/01 07:10:21;;;;;;;38.67;28.87;;;8.70;99.90;;;;;;5073669;28;20020;-86
2022/05/01 07:12:47;;;;;;;37.80;28.40;;;8.70;99.90;;;;;;5055160;28;20517;-86
2022/05/01 07:15:13;;;;;;;38.33;29.03;;;8.70;99.90;;;;;;5057849;28;20111;-86
2022/05/01 07:17:39;;;;;;;35.93;27.63;;;8.70;99.90;;;;;;5060473;28;20029;-87
2022/05/01 07:20:05;;;;;;;39.10;29.57;;;8.70;99.90;;;;;;5077283;28;20021;-86
2022/05/01 07:22:31;;;;;;;36.90;27.80;;;8.70;99.90;;;;;;5077972;28;20427;-86
2022/05/01 07:25:00;;;;;;;34.40;27.40;;;8.60;99.90;;;;;;5059819;28;20025;-86
2022/05/01 07:27:26;;;;;;;35.03;27.23;;;8.60;99.90;;;;;;5059540;28;20032;-85
2022/05/01 07:29:52;;;;;;;38.77;28.53;;;8.60;99.90;;;;;;5062727;28;20024;-90
2022/05/01 07:32:20;;;;;;;38.00;27.30;;;8.60;99.90;;;;;;5060465;28;20120;-90
2022/05/01 07:34:46;;;;;;;37.97;27.80;;;8.60;99.90;;;;;;5076465;28;20035;-90
2022/05/01 07:37:13;;;;;;;36.20;27.37;;;8.60;99.90;;;;;;5074725;28;20103;-91
2022/05/01 07:39:39;;;;;;;48.10;32.63;;;8.70;99.90;;;;;;5064066;28;20024;-91
2022/05/01 07:42:05;;;;;;;38.70;28.37;;;8.70;99.90;;;;;;5061201;28;20078;-91
2022/05/01 07:44:31;;;;;;;38.63;30.37;;;8.70;99.90;;;;;;5075108;28;20473;-91
2022/05/01 07:46:57;;;;;;;40.87;29.40;;;8.70;99.90;;;;;;5073433;28;20490;-90
2022/05/01 07:49:23;;;;;;;36.90;28.57;;;8.70;99.90;;;;;;5041359;28;20376;-85
2022/05/01 07:51:49;;;;;;;40.03;29.50;;;8.70;99.90;;;;;;5076744;28;20472;-86
2022/05/01 07:54:16;;;;;;;37.00;28.00;;;8.70;99.90;;;;;;5076868;28;20024;-86
2022/05/01 07:56:42;;;;;;;40.93;29.37;;;8.70;99.90;;;;;;5060061;28;20016;-86
2022/05/01 07:59:11;;;;;;;37.70;28.87;;;8.70;99.90;;;;;;5075798;28;20041;-90
2022/05/01 08:02:00;;;;;;;37.80;28.53;;;8.80;99.90;;;;;;5073090;28;20017;-91
2022/05/01 08:04:32;;;;;;;37.37;28.20;;;8.80;99.90;;;;;;5054413;28;20039;-85
2022/05/01 08:07:00;;;;;;;44.80;33.13;;;8.80;99.90;;;;;;5076210;28;20025;-88
2022/05/01 08:09:33;;;;;;;40.03;28.33;;;8.90;99.90;;;;;;5059192;28;20026;-88
2022/05/01 08:12:01;;;;;;;38.90;28.67;;;8.90;99.90;;;;;;5059086;28;20078;-88
2022/05/01 08:17:20;;;;;;;39.17;29.13;;;8.90;99.90;;;;;;5076774;28;20047;-88
2022/05/01 08:22:41;;;;;;;41.87;30.47;;;9.00;99.90;;;;;;5079453;28;20078;-87
2022/05/01 08:25:11;;;;;;;39.27;30.10;;;9.00;99.90;;;;;;5075945;28;20103;-87
2022/05/01 08:28:00;;;;;;;38.30;27.73;;;9.00;99.90;;;;;;5075681;28;20025;-86
2022/05/01 08:31:11;;;;;;;36.87;27.83;;;9.00;99.90;;;;;;5066898;28;20064;-85
2022/05/01 08:33:40;;;;;;;38.00;28.87;;;9.10;99.90;;;;;;5023807;28;20028;-86
2022/05/01 08:39:41;;;;;;;38.50;28.70;;;9.20;99.90;;;;;;5055535;28;20085;-83
2022/05/01 08:42:14;;;;;;;37.10;27.57;;;9.20;99.90;;;;;;5053561;28;20012;-84
2022/05/01 08:44:39;;;;;;;34.03;25.07;;;9.30;99.90;;;;;;5068575;28;20028;-84
2022/05/01 08:47:22;;;;;;;34.50;25.77;;;9.40;99.90;;;;;;5070535;28;20021;-85
2022/05/01 08:50:10;;;;;;;34.47;26.47;;;9.40;99.90;;;;;;5072141;28;20082;-86
2022/05/01 08:53:01;;;;;;;34.83;26.23;;;9.40;99.90;;;;;;5073872;28;20025;-85
2022/05/01 08:55:30;;;;;;;31.77;23.63;;;9.40;99.90;;;;;;5063062;28;20040;-84
2022/05/01 08:57:58;;;;;;;31.97;24.70;;;9.40;99.90;;;;;;5074005;28;20338;-85
2022/05/01 09:00:26;;;;;;;35.40;26.87;;;9.50;99.90;;;;;;5056629;28;20113;-86
2022/05/01 09:02:52;;;;;;;32.73;24.63;;;9.50;99.90;;;;;;5074616;28;20048;-86
2022/05/01 09:05:17;;;;;;;30.03;23.60;;;9.60;99.90;;;;;;5074036;28;20063;-86
2022/05/01 09:07:43;;;;;;;36.87;26.37;;;9.60;99.90;;;;;;5074352;28;20111;-86
2022/05/01 09:10:09;;;;;;;31.27;25.17;;;9.60;99.90;;;;;;5056089;28;20445;-85
2022/05/01 09:12:52;;;;;;;30.83;25.33;;;9.60;99.90;;;;;;5075006;28;20051;-84
2022/05/01 09:16:09;;;;;;;33.80;25.60;;;9.60;99.90;;;;;;5075152;28;20123;-87
2022/05/01 09:18:53;;;;;;;33.87;25.03;;;9.60;99.90;;;;;;5004666;28;20084;-86
2022/05/01 09:21:21;;;;;;;34.80;26.60;;;9.70;99.90;;;;;;5012084;28;20113;-87
2022/05/01 09:24:10;;;;;;;35.23;25.20;;;9.70;99.90;;;;;;5011078;28;20529;-86
2022/05/01 09:30:11;;;;;;;34.85;24.52;;;9.90;99.90;;;;;;4996057;28;20041;-86
2022/05/01 09:32:38;;;;;;;;;;;10.00;99.90;;;;;;5034988;28;20036;-86
2022/05/01 09:35:06;;;;;;;33.60;23.80;;;10.10;99.90;;;;;;5074209;28;19905;-84
2022/05/01 09:37:31;;;;;;;29.80;22.63;;;10.20;99.90;;;;;;5074471;28;20021;-84
2022/05/01 09:40:00;;;;;;;34.07;24.53;;;10.30;99.90;;;;;;5073055;28;20103;-86
2022/05/01 09:42:34;;;;;;;31.73;24.33;;;10.40;99.90;;;;;;5074625;28;20032;-84
2022/05/01 09:45:19;;;;;;;34.60;24.37;;;10.40;99.90;;;;;;5056295;28;20024;-86
2022/05/01 09:47:47;;;;;;;30.65;24.50;;;10.50;99.90;;;;;;5073664;28;20021;-86
2022/05/01 09:50:41;;;;;;;29.25;22.30;;;10.70;99.90;;;;;;5074991;28;20033;-86
2022/05/01 09:53:20;;;;;;;;;;;;;;;;;;;;;
2022/05/01 09:56:19;;;;;;;29.43;21.77;;;10.80;99.90;;;;;;5014603;28;20030;-87
2022/05/01 10:02:11;;;;;;;25.98;20.50;;;11.20;99.90;;;;;;4997861;28;20625;-87
2022/05/01 10:04:42;;;;;;;29.50;20.90;;;11.50;99.90;;;;;;4998048;28;20072;-87
2022/05/01 10:07:23;;;;;;;28.60;22.02;;;11.60;99.90;;;;;;5018024;28;20034;-87
2022/05/01 10:09:53;;;;;;;26.98;21.40;;;11.70;99.90;;;;;;5039486;28;20094;-88
2022/05/01 10:12:28;;;;;;;26.02;20.17;;;11.80;99.90;;;;;;5060723;28;20024;-87
2022/05/01 10:15:00;;;;;;;26.40;20.30;;;11.90;99.90;;;;;;5073790;28;20020;-85
2022/05/01 10:17:40;;;;;;;24.20;20.52;;;12.00;99.90;;;;;;5073831;28;20020;-85
2022/05/01 10:20:49;;;;;;;25.17;21.13;;;12.00;99.90;;;;;;5073282;28;20401;-87
2022/05/01 10:23:42;;;;;;;25.83;20.35;;;12.10;99.90;;;;;;5036217;28;20037;-87
2022/05/01 10:27:04;;;;;;;24.67;19.77;;;12.20;99.90;;;;;;5049459;28;20031;-87
2022/05/01 10:33:17;;;;;;;23.05;18.35;;;12.50;99.90;;;;;;5065859;28;20043;-87
2022/05/01 10:36:25;;;;;;;23.23;18.67;;;12.60;99.90;;;;;;5071682;28;20384;-87
2022/05/01 10:39:17;;;;;;;22.50;18.60;;;12.60;99.90;;;;;;5070830;28;20037;-87
2022/05/01 10:41:45;;;;;;;21.92;18.45;;;12.60;99.90;;;;;;5072705;28;20024;-86
2022/05/01 10:44:30;;;;;;;24.35;18.65;;;12.50;99.90;;;;;;5055074;28;20056;-86
2022/05/01 10:47:12;;;;;;;21.73;18.65;;;12.60;99.90;;;;;;5069835;28;20078;-86
2022/05/01 10:49:42;;;;;;;25.40;19.25;;;12.60;99.90;;;;;;5072141;28;20050;-86
2022/05/01 10:52:22;;;;;;;21.83;17.95;;;12.70;99.90;;;;;;5074726;28;20111;-87
2022/05/01 10:54:54;;;;;;;22.23;18.35;;;12.80;99.90;;;;;;5076502;28;20376;-86
2022/05/01 10:57:21;;;;;;;22.58;19.10;;;13.00;99.90;;;;;;5058175;28;20021;-86
2022/05/01 11:00:00;;;;;;;24.92;19.05;;;13.00;99.90;;;;;;5056911;28;20044;-87
2022/05/01 11:02:38;;;;;;;23.83;19.45;;;13.00;99.90;;;;;;5073003;28;20066;-87
2022/05/01 11:05:07;;;;;;;24.52;19.05;;;12.90;99.90;;;;;;5072804;28;20028;-88
2022/05/01 11:07:39;;;;;;;22.55;18.92;;;12.80;99.90;;;;;;5055229;28;20035;-87
2022/05/01 11:10:10;;;;;;;25.20;18.13;;;12.80;99.90;;;;;;5072801;28;20032;-88
2022/05/01 11:12:43;;;;;;;23.73;19.40;;;12.70;99.90;;;;;;5071743;28;20093;-88
2022/05/01 11:15:11;;;;;;;20.98;17.52;;;12.70;99.90;;;;;;5073458;28;20012;-86
2022/05/01 11:17:36;;;;;;;26.20;20.02;;;12.70;99.90;;;;;;5056727;28;20150;-86
2022/05/01 11:20:23;;;;;;;21.63;18.58;;;12.70;99.90;;;;;;5073505;28;20052;-87
2022/05/01 11:22:49;;;;;;;24.55;19.70;;;12.70;99.90;;;;;;5073780;28;20025;-86
2022/05/01 11:25:38;;;;;;;24.38;19.95;;;12.80;99.90;;;;;;5055953;28;20024;-85
2022/05/01 11:28:05;;;;;;;23.58;19.23;;;12.80;99.90;;;;;;5088409;28;20135;-85
2022/05/01 11:30:31;;;;;;;25.65;18.83;;;12.90;99.90;;;;;;5093183;28;20415;-85
2022/05/01 11:33:11;;;;;;;21.60;17.13;;;12.90;99.90;;;;;;5074708;28;20027;-84
2022/05/01 11:36:01;;;;;;;22.70;18.33;;;13.20;99.90;;;;;;5074917;28;20516;-85
2022/05/01 11:38:50;;;;;;;21.83;16.65;;;13.50;99.90;;;;;;5093186;28;20479;-86
2022/05/01 11:41:39;;;;;;;21.08;16.83;;;13.80;99.90;;;;;;5074899;28;20158;-85
2022/05/01 11:44:26;;;;;;;22.42;17.52;;;14.00;99.90;;;;;;5093048;28;20435;-85
2022/05/01 11:46:55;;;;;;;18.33;15.80;;;14.20;99.90;;;;;;5093080;28;20413;-86
2022/05/01 11:49:21;;;;;;;18.80;14.27;;;14.30;99.90;;;;;;5074482;28;20048;-86
2022/05/01 11:51:52;;;;;;;17.65;15.05;;;14.40;99.90;;;;;;5092881;28;20099;-86
2022/05/01 11:54:28;;;;;;;124.82;75.47;;;14.80;99.90;;;;;;5093296;28;20024;-86
2022/05/01 12:02:31;;;;;;;19.30;15.95;;;16.40;99.90;;;;;;5095659;28;20071;-86
2022/05/01 12:09:41;;;;;;;;;;;;;;;;;;;;;
2022/05/01 12:15:04;;;;;;;18.73;16.05;;;15.00;99.90;;;;;;5007185;28;20447;-87
2022/05/01 12:31:21;;;;;;;14.45;12.60;;;16.40;99.90;;;;;;4958154;28;20022;-86
2022/05/01 12:55:42;;;;;;;13.85;10.63;;;16.60;99.90;;;;;;4680446;30;20080;-91
2022/05/01 12:58:22;;;;;;;13.90;10.52;;;16.60;99.90;;;;;;4867061;28;20067;-90
2022/05/01 13:05:20;;;;;;;15.88;12.85;;;16.30;99.90;;;;;;4879063;29;20037;-90
2022/05/01 13:08:24;;;;;;;15.25;11.60;;;15.90;99.90;;;;;;4896855;29;20044;-91
2022/05/01 13:11:31;;;;;;;14.18;10.85;;;15.80;99.90;;;;;;5014201;28;20067;-90
2022/05/01 13:14:33;;;;;;;15.20;11.45;;;15.70;99.90;;;;;;5052603;28;20033;-88
2022/05/01 13:17:22;;;;;;;15.05;11.88;;;15.60;99.90;;;;;;5054044;28;20025;-88
2022/05/01 13:19:50;;;;;;;15.68;12.93;;;15.30;99.90;;;;;;5052294;28;20028;-88
2022/05/01 13:23:13;;;;;;;15.77;13.05;;;15.20;99.90;;;;;;5055900;28;20029;-89
2022/05/01 13:36:52;;;;;;;15.73;12.48;;;14.30;99.90;;;;;;4965902;28;20550;-91
2022/05/01 13:46:13;;;;;;;15.75;12.05;;;13.70;99.90;;;;;;4928740;29;20043;-92
2022/05/01 13:49:42;;;;;;;;;;;;;;;;;;;;;
2022/05/01 13:52:41;;;;;;;;;;;;;;;;;;;;;
2022/05/01 13:55:43;;;;;;;;;;;;;;;;;;;;;
2022/05/01 14:13:20;;;;;;;16.90;13.07;;;13.40;99.90;;;;;;4973655;28;20098;-87
2022/05/01 14:16:00;;;;;;;19.05;14.40;;;13.40;99.90;;;;;;4937183;28;20630;-87
2022/05/01 14:18:51;;;;;;;16.65;14.20;;;13.40;99.90;;;;;;4987015;28;20040;-86
2022/05/01 14:21:55;;;;;;;18.63;14.55;;;13.40;99.90;;;;;;5032582;28;20112;-86
2022/05/01 14:24:21;;;;;;;17.25;13.02;;;13.40;99.90;;;;;;5026158;28;20433;-85
2022/05/01 14:27:04;;;;;;;16.40;13.68;;;13.30;99.90;;;;;;5032544;28;20468;-86
2022/05/01 14:36:44;;;;;;;;;;;;;;;;;;;;;
2022/05/01 14:50:14;;;;;;;;;;;;;;;;;;;;;
2022/05/01 14:53:12;;;;;;;;;;;;;;;;;;;;;
2022/05/01 14:56:03;;;;;;;16.45;13.63;;;13.30;99.90;;;;;;4873155;29;20036;-89
2022/05/01 15:12:40;;;;;;;18.85;13.93;;;13.50;99.90;;;;;;4899589;29;20068;-86
2022/05/01 15:15:32;;;;;;;17.77;14.05;;;13.50;99.90;;;;;;4905616;29;20028;-86
2022/05/01 15:18:01;;;;;;;20.75;13.80;;;13.60;99.90;;;;;;4917648;29;20028;-89
2022/05/01 15:20:31;;;;;;;15.27;13.43;;;13.60;99.90;;;;;;5017535;28;20105;-89
2022/05/01 15:23:24;;;;;;;17.13;13.88;;;13.50;99.90;;;;;;5034419;28;20104;-89
2022/05/01 15:26:00;;;;;;;18.27;13.30;;;13.50;99.90;;;;;;5033277;28;20029;-89
2022/05/01 15:39:04;;;;;;;17.00;12.98;;;13.60;99.90;;;;;;4938069;29;20028;-89
2022/05/01 15:55:04;;;;;;;19.50;13.15;;;13.60;99.90;;;;;;4807807;29;20113;-89
2022/05/01 15:57:32;;;;;;;16.58;12.82;;;13.70;99.90;;;;;;4859970;29;20030;-85
2022/05/01 16:00:20;;;;;;;17.50;12.52;;;13.70;99.90;;;;;;4843351;29;20077;-85
2022/05/01 16:02:54;;;;;;;16.38;12.00;;;13.70;99.90;;;;;;4919663;29;20102;-86
2022/05/01 16:05:23;;;;;;;18.88;13.07;;;13.80;99.90;;;;;;4993181;28;20063;-78
2022/05/01 16:08:28;;;;;;;16.90;12.50;;;13.80;99.90;;;;;;5036797;28;20356;-86
2022/05/01 16:11:26;;;;;;;18.52;13.48;;;14.00;99.90;;;;;;5036413;28;20072;-85